Zim Chicago — A8SI9 — position and weather

sailwx.info

Track history (hours):
 
Tides and Currents Weather Stations Pressure Air Temp Water Temp Dewpoint Dewpoint Depression Visibility Wind Speed Wind Dir Waves Ship Positions

Zim Chicago

Last reported at 2017-Feb-27 17:14 UTC. Time now 2017-Feb-27 18:17 UTC.
Position N 36°51' W 076°20'.

Length 334 m; draft 11.4 m.

Type: Cargo ship. MMSI: 636014223.

Date/timePositionNaut miles runAvg speedWind from/ knotsBaromVisibWave heightAir tempDewpointWater temp
2017-Feb-27 17:14N 36°51' W 076°20'0 0.0
2017-Feb-27 16:29N 36°51' W 076°20'0 0.0
2017-Feb-27 15:32N 36°51' W 076°20'0 0.0
2017-Feb-27 14:32N 36°51' W 076°20'0 0.0
2017-Feb-27 13:32N 36°51' W 076°20'0 0.0
2017-Feb-27 12:32N 36°51' W 076°20'0 0.0
2017-Feb-27 11:33N 36°51' W 076°20'5 5.0
2017-Feb-27 10:33N 36°56' W 076°20'1211.8
2017-Feb-27 09:33N 36°58' W 076°06'1110.6
2017-Feb-27 08:34N 36°54' W 075°53'10 9.4
2017-Feb-27 07:31N 36°48' W 075°44'36213.4
2017-Feb-26 04:33N 32°02' W 080°11'1313.6
2017-Feb-26 03:33N 31°58' W 080°27'1010.0
2017-Feb-26 02:33N 31°58' W 080°38'1212.3
2017-Feb-26 01:34N 32°02' W 080°52'1010.4
2017-Feb-26 00:33N 32°05' W 081°04'5 4.5
2017-Feb-25 23:33N 32°08' W 081°08'0 0.0
2017-Feb-25 22:30N 32°08' W 081°08'0 0.0
2017-Feb-25 21:30N 32°08' W 081°08'0 0.0
2017-Feb-25 20:30N 32°08' W 081°08'0 0.0
2017-Feb-25 19:30N 32°08' W 081°08'0 0.0
2017-Feb-25 18:30N 32°08' W 081°08'0 0.0
2017-Feb-25 17:30N 32°08' W 081°08'0 0.0
2017-Feb-25 16:30N 32°08' W 081°08'0 0.0
2017-Feb-25 15:30N 32°08' W 081°08'0 0.0
2017-Feb-25 14:18N 32°08' W 081°08'0 0.0
2017-Feb-25 13:30N 32°08' W 081°08'0 0.0
2017-Feb-25 12:30N 32°08' W 081°08'0 0.0
2017-Feb-25 11:30N 32°08' W 081°08'0 0.0
2017-Feb-25 10:24N 32°08' W 081°08'0 0.0
2017-Feb-25 09:30N 32°08' W 081°08'0 0.0
2017-Feb-25 08:24N 32°08' W 081°08'0 0.0
2017-Feb-25 07:24N 32°08' W 081°08'0 0.0
2017-Feb-25 06:24N 32°08' W 081°08'0 0.0
2017-Feb-25 05:30N 32°08' W 081°08'0 0.0
2017-Feb-25 04:30N 32°08' W 081°08'0 0.0
2017-Feb-25 03:30N 32°08' W 081°08'0 0.0
2017-Feb-25 02:30N 32°08' W 081°08'0 0.0
2017-Feb-25 01:30N 32°08' W 081°08'0 0.0
2017-Feb-25 00:30N 32°08' W 081°08'0 0.0
2017-Feb-24 23:24N 32°08' W 081°08'0 0.0
2017-Feb-24 22:30N 32°08' W 081°08'0 0.0
2017-Feb-24 21:24N 32°08' W 081°08'0 0.0
2017-Feb-24 20:30N 32°08' W 081°08'0 0.0
2017-Feb-24 19:30N 32°08' W 081°08'0 0.4
2017-Feb-24 18:33N 32°08' W 081°08'4 4.2
2017-Feb-24 17:33N 32°05' W 081°05'7 6.9
2017-Feb-24 16:33N 32°04' W 080°57'1010.5
2017-Feb-24 15:34N 31°59' W 080°46'1110.6
2017-Feb-24 14:33N 31°54' W 080°35'2 1.8
2017-Feb-24 13:31N 31°53' W 080°33'0 0.3
2017-Feb-24 12:33N 31°53' W 080°33'1 0.6
2017-Feb-24 11:33N 31°53' W 080°33'3 2.6
2017-Feb-24 10:33N 31°50' W 080°31'3 3.5
2017-Feb-24 09:33N 31°47' W 080°29'  
2017-Feb-19 23:15N 09°38' W 079°46'1318.5
2017-Feb-19 22:33N 09°28' W 079°54'1010.0
2017-Feb-19 21:33N 09°18' W 079°55'2 1.5
2017-Feb-19 20:33N 09°16' W 079°55'0 0.4
2017-Feb-19 19:33N 09°16' W 079°55'0 0.5
2017-Feb-19 18:33N 09°16' W 079°55'0 0.3
2017-Feb-19 17:33N 09°15' W 079°55'3 2.8
2017-Feb-19 16:33N 09°12' W 079°55'  
Track history (hours):
 
Tides and Currents Weather Stations Pressure Air Temp Water Temp Dewpoint Dewpoint Depression Visibility Wind Speed Wind Dir Waves Ship Positions

Zim Chicago

Last reported at 2017-Feb-27 17:14 UTC. Time now 2017-Feb-27 18:17 UTC.
Position N 36°51' W 076°20'.

Length 334 m; draft 11.4 m.

Type: Cargo ship. MMSI: 636014223.

Date/timePositionNaut miles runAvg speedWind from/ knotsBaromVisibWave heightAir tempDewpointWater temp
2017-Feb-27 17:14N 36°51' W 076°20'0 0.0
2017-Feb-27 16:29N 36°51' W 076°20'0 0.0
2017-Feb-27 15:32N 36°51' W 076°20'0 0.0
2017-Feb-27 14:32N 36°51' W 076°20'0 0.0
2017-Feb-27 13:32N 36°51' W 076°20'0 0.0
2017-Feb-27 12:32N 36°51' W 076°20'0 0.0
2017-Feb-27 11:33N 36°51' W 076°20'5 5.0
2017-Feb-27 10:33N 36°56' W 076°20'1211.8
2017-Feb-27 09:33N 36°58' W 076°06'1110.6
2017-Feb-27 08:34N 36°54' W 075°53'10 9.4
2017-Feb-27 07:31N 36°48' W 075°44'36213.4
2017-Feb-26 04:33N 32°02' W 080°11'1313.6
2017-Feb-26 03:33N 31°58' W 080°27'1010.0
2017-Feb-26 02:33N 31°58' W 080°38'1212.3
2017-Feb-26 01:34N 32°02' W 080°52'1010.4
2017-Feb-26 00:33N 32°05' W 081°04'5 4.5
2017-Feb-25 23:33N 32°08' W 081°08'0 0.0
2017-Feb-25 22:30N 32°08' W 081°08'0 0.0
2017-Feb-25 21:30N 32°08' W 081°08'0 0.0
2017-Feb-25 20:30N 32°08' W 081°08'0 0.0
2017-Feb-25 19:30N 32°08' W 081°08'0 0.0
2017-Feb-25 18:30N 32°08' W 081°08'0 0.0
2017-Feb-25 17:30N 32°08' W 081°08'0 0.0
2017-Feb-25 16:30N 32°08' W 081°08'0 0.0
2017-Feb-25 15:30N 32°08' W 081°08'0 0.0
2017-Feb-25 14:18N 32°08' W 081°08'0 0.0
2017-Feb-25 13:30N 32°08' W 081°08'0 0.0
2017-Feb-25 12:30N 32°08' W 081°08'0 0.0
2017-Feb-25 11:30N 32°08' W 081°08'0 0.0
2017-Feb-25 10:24N 32°08' W 081°08'0 0.0
2017-Feb-25 09:30N 32°08' W 081°08'0 0.0
2017-Feb-25 08:24N 32°08' W 081°08'0 0.0
2017-Feb-25 07:24N 32°08' W 081°08'0 0.0
2017-Feb-25 06:24N 32°08' W 081°08'0 0.0
2017-Feb-25 05:30N 32°08' W 081°08'0 0.0
2017-Feb-25 04:30N 32°08' W 081°08'0 0.0
2017-Feb-25 03:30N 32°08' W 081°08'0 0.0
2017-Feb-25 02:30N 32°08' W 081°08'0 0.0
2017-Feb-25 01:30N 32°08' W 081°08'0 0.0
2017-Feb-25 00:30N 32°08' W 081°08'0 0.0
2017-Feb-24 23:24N 32°08' W 081°08'0 0.0
2017-Feb-24 22:30N 32°08' W 081°08'0 0.0
2017-Feb-24 21:24N 32°08' W 081°08'0 0.0
2017-Feb-24 20:30N 32°08' W 081°08'0 0.0
2017-Feb-24 19:30N 32°08' W 081°08'0 0.4
2017-Feb-24 18:33N 32°08' W 081°08'4 4.2
2017-Feb-24 17:33N 32°05' W 081°05'7 6.9
2017-Feb-24 16:33N 32°04' W 080°57'1010.5
2017-Feb-24 15:34N 31°59' W 080°46'1110.6
2017-Feb-24 14:33N 31°54' W 080°35'2 1.8
2017-Feb-24 13:31N 31°53' W 080°33'0 0.3
2017-Feb-24 12:33N 31°53' W 080°33'1 0.6
2017-Feb-24 11:33N 31°53' W 080°33'3 2.6
2017-Feb-24 10:33N 31°50' W 080°31'3 3.5
2017-Feb-24 09:33N 31°47' W 080°29'  
2017-Feb-19 23:15N 09°38' W 079°46'1318.5
2017-Feb-19 22:33N 09°28' W 079°54'1010.0
2017-Feb-19 21:33N 09°18' W 079°55'2 1.5
2017-Feb-19 20:33N 09°16' W 079°55'0 0.4
2017-Feb-19 19:33N 09°16' W 079°55'0 0.5
2017-Feb-19 18:33N 09°16' W 079°55'0 0.3
2017-Feb-19 17:33N 09°15' W 079°55'3 2.8
2017-Feb-19 16:33N 09°12' W 079°55'  

Dump ship's entire track history